createdAt,value
2022-10-22T00:02:16.447Z,1.16
2022-10-22T00:05:16.457Z,1.44
2022-10-22T00:08:16.525Z,1.23
2022-10-22T00:11:16.496Z,1.5
2022-10-22T00:14:16.411Z,0.91
2022-10-22T00:17:16.491Z,1.05
2022-10-22T00:20:16.442Z,0.79
2022-10-22T00:23:16.513Z,1.19
2022-10-22T00:26:16.443Z,1.4
2022-10-22T00:29:16.406Z,1.54
2022-10-22T00:32:16.467Z,0.93
2022-10-22T00:35:16.476Z,1.27
2022-10-22T00:38:16.446Z,0.8
2022-10-22T00:41:16.457Z,1.25
2022-10-22T00:44:16.448Z,1.51
2022-10-22T00:47:16.552Z,0.85
2022-10-22T00:50:16.430Z,1.2
2022-10-22T00:53:16.455Z,1.01
2022-10-22T00:56:16.496Z,1.15
2022-10-22T00:59:16.459Z,1.04
2022-10-22T01:02:16.525Z,0.88
2022-10-22T01:05:16.470Z,1.08
2022-10-22T01:08:16.502Z,0.82
2022-10-22T01:11:16.466Z,0.87
2022-10-22T01:14:16.467Z,0.82
2022-10-22T01:17:16.564Z,0.94
2022-10-22T01:20:16.463Z,0.62
2022-10-22T01:23:16.485Z,1.01
2022-10-22T01:26:16.549Z,0.77
2022-10-22T01:29:16.526Z,1.07
2022-10-22T01:32:16.506Z,0.96
2022-10-22T01:35:16.542Z,0.65
2022-10-22T01:38:16.518Z,0.89
2022-10-22T01:41:16.501Z,1.02
2022-10-22T01:44:16.490Z,1.08
2022-10-22T01:47:16.515Z,0.93
2022-10-22T01:50:16.547Z,1.09
2022-10-22T01:53:16.548Z,0.7
2022-10-22T01:56:16.518Z,1.19
2022-10-22T01:59:16.521Z,1.25
2022-10-22T02:02:16.536Z,1.01
2022-10-22T02:05:16.536Z,1.62
2022-10-22T02:08:16.517Z,1
2022-10-22T02:11:16.573Z,1.07
2022-10-22T02:14:16.578Z,0.92
2022-10-22T02:17:16.530Z,1.02
2022-10-22T02:20:16.557Z,0.96
2022-10-22T02:23:16.572Z,1.13
2022-10-22T02:26:16.612Z,0.96
2022-10-22T02:29:16.553Z,0.96
2022-10-22T02:32:16.554Z,1.08
2022-10-22T02:35:16.593Z,0.62
2022-10-22T02:38:16.577Z,0.87
2022-10-22T02:41:16.611Z,0.78
2022-10-22T02:44:16.591Z,0.88
2022-10-22T02:47:16.577Z,0.84
2022-10-22T02:50:16.580Z,0.81
2022-10-22T02:53:16.619Z,0.65
2022-10-22T02:56:16.582Z,0.78
2022-10-22T02:59:16.596Z,0.45
2022-10-22T03:02:16.573Z,0.57
2022-10-22T03:05:16.612Z,0.64
2022-10-22T03:08:16.568Z,0.66
2022-10-22T03:11:16.580Z,0.54
2022-10-22T03:14:16.616Z,0.92
2022-10-22T03:17:16.603Z,0.92
2022-10-22T03:20:16.572Z,0.62
2022-10-22T03:23:16.597Z,0.95
2022-10-22T03:26:16.608Z,0.48
2022-10-22T03:29:16.599Z,0.54
2022-10-22T03:32:16.618Z,0.45
2022-10-22T03:35:16.627Z,0.53
2022-10-22T03:38:16.591Z,0.58
2022-10-22T03:41:16.598Z,0.68
2022-10-22T03:44:16.638Z,0.68
2022-10-22T03:47:16.610Z,0.67
2022-10-22T03:50:16.656Z,0.64
2022-10-22T03:53:16.622Z,0.59
2022-10-22T03:56:16.652Z,0.55
2022-10-22T03:59:16.664Z,0.44
2022-10-22T04:02:16.665Z,0.35
2022-10-22T04:05:16.681Z,0.14
2022-10-22T04:08:16.614Z,0.48
2022-10-22T04:11:16.620Z,0.39
2022-10-22T04:14:16.636Z,0.5
2022-10-22T04:17:16.667Z,0.42
2022-10-22T04:20:16.648Z,0.54
2022-10-22T04:23:16.659Z,0.66
2022-10-22T04:26:16.696Z,0.82
2022-10-22T04:29:16.656Z,0.64
2022-10-22T04:32:16.690Z,0.6
2022-10-22T04:35:16.793Z,0.71
2022-10-22T04:38:16.682Z,0.73
2022-10-22T04:41:16.731Z,0.87
2022-10-22T04:44:17.416Z,0.62
2022-10-22T04:47:16.726Z,0.68
2022-10-22T04:50:16.796Z,0.48
2022-10-22T04:53:16.666Z,0.68
2022-10-22T04:56:16.712Z,0.51
2022-10-22T04:59:16.750Z,0.7
2022-10-22T05:02:16.692Z,0.57
2022-10-22T05:05:16.701Z,0.79
2022-10-22T05:08:16.666Z,0.61
2022-10-22T05:11:16.702Z,0.37
2022-10-22T05:14:16.668Z,0.53
2022-10-22T05:17:16.674Z,0.51
2022-10-22T05:20:16.726Z,0.63
2022-10-22T05:23:16.691Z,0.74
2022-10-22T05:26:16.744Z,0.75
2022-10-22T05:29:16.738Z,0.68
2022-10-22T05:32:16.708Z,0.58
2022-10-22T05:35:16.721Z,0.72
2022-10-22T05:38:16.748Z,0.78
2022-10-22T05:41:16.723Z,0.63
2022-10-22T05:44:16.717Z,0.46
2022-10-22T05:47:16.767Z,0.48
2022-10-22T05:50:16.708Z,0.44
2022-10-22T05:53:16.727Z,0.76
2022-10-22T05:56:16.766Z,0.54
2022-10-22T05:59:16.741Z,0.62
2022-10-22T06:02:16.750Z,0.4
2022-10-22T06:05:16.738Z,0.16
2022-10-22T06:08:18.301Z,0.28
2022-10-22T06:11:16.768Z,0.34
2022-10-22T06:14:16.762Z,0.18
2022-10-22T06:17:16.771Z,0.27
2022-10-22T06:20:16.753Z,0.34
2022-10-22T06:23:16.757Z,0.54
2022-10-22T06:26:16.778Z,0.54
2022-10-22T06:29:16.743Z,0.66
2022-10-22T06:32:16.779Z,0.73
2022-10-22T06:35:16.756Z,0.84
2022-10-22T06:38:16.767Z,0.89
2022-10-22T06:41:16.778Z,0.69
2022-10-22T06:44:16.798Z,0.41
2022-10-22T06:47:16.763Z,0.36
2022-10-22T06:50:16.794Z,0.27
2022-10-22T06:53:16.812Z,0.32
2022-10-22T06:56:16.791Z,0.21
2022-10-22T06:59:16.799Z,0.27
2022-10-22T07:02:16.822Z,0.32
2022-10-22T07:05:16.793Z,0.44
2022-10-22T07:08:16.801Z,0.3
2022-10-22T07:11:16.806Z,0.36
2022-10-22T07:14:16.841Z,0.1
2022-10-22T07:17:16.827Z,0.42
2022-10-22T07:20:16.793Z,0.07
2022-10-22T07:23:16.823Z,0.45
2022-10-22T07:26:16.779Z,0.33
2022-10-22T07:29:16.857Z,0.18
2022-10-22T07:32:22.931Z,0.24
2022-10-22T07:35:16.811Z,0.29
2022-10-22T07:38:16.812Z,0.13
2022-10-22T07:41:16.835Z,0.11
2022-10-22T07:44:16.803Z,0.08
2022-10-22T07:47:16.877Z,0.25
2022-10-22T07:50:16.841Z,0.3
2022-10-22T07:53:16.812Z,0.4
2022-10-22T07:56:16.858Z,0.46
2022-10-22T07:59:16.840Z,0.28
2022-10-22T08:02:16.826Z,0.21
2022-10-22T08:05:16.876Z,0.21
2022-10-22T08:08:16.821Z,0.1
2022-10-22T08:14:16.822Z,0.18
2022-10-22T08:17:16.902Z,0.28
2022-10-22T08:20:16.889Z,0.58
2022-10-22T08:23:16.843Z,0.51
2022-10-22T08:26:16.901Z,0.35
2022-10-22T08:29:16.881Z,0.44
2022-10-22T08:32:16.916Z,0.43
2022-10-22T08:35:17.720Z,0.33
2022-10-22T08:38:16.905Z,0.44
2022-10-22T08:41:16.842Z,0.56
2022-10-22T08:44:16.864Z,0.28
2022-10-22T08:47:18.620Z,0.25
2022-10-22T08:50:16.868Z,0.45
2022-10-22T08:53:16.913Z,0.31
2022-10-22T08:56:16.934Z,0.2
2022-10-22T08:59:16.903Z,0.17
2022-10-22T09:02:16.887Z,0.29
2022-10-22T09:05:16.915Z,0.19
2022-10-22T09:08:16.853Z,0.24
2022-10-22T09:11:16.912Z,0.32
2022-10-22T09:14:16.921Z,0.14
2022-10-22T09:17:16.892Z,0.45
2022-10-22T09:20:16.903Z,0.42
2022-10-22T09:23:16.902Z,0.63
2022-10-22T09:26:16.965Z,0.92
2022-10-22T09:29:16.918Z,0.74
2022-10-22T09:32:16.906Z,0.47
2022-10-22T09:35:16.956Z,0.85
2022-10-22T09:38:16.902Z,1.02
2022-10-22T09:41:16.958Z,0.6
2022-10-22T09:44:16.948Z,1.01
2022-10-22T09:47:16.934Z,0.91
2022-10-22T09:50:17.033Z,1.25
2022-10-22T09:53:16.881Z,1.08
2022-10-22T09:56:16.955Z,0.98
2022-10-22T09:59:16.918Z,0.64
2022-10-22T10:02:26.795Z,0.73
2022-10-22T10:05:16.964Z,0.6
2022-10-22T10:08:16.959Z,0.84
2022-10-22T10:11:17.000Z,0.88
2022-10-22T10:14:16.981Z,1.06
2022-10-22T10:17:16.932Z,0.93
2022-10-22T10:20:16.982Z,1.16
2022-10-22T10:23:17.411Z,0.73
2022-10-22T10:26:17.020Z,0.84
2022-10-22T10:29:17.023Z,1.09
2022-10-22T10:32:18.821Z,0.7
2022-10-22T10:35:16.957Z,1.12
2022-10-22T10:38:17.012Z,0.98
2022-10-22T10:41:16.993Z,1.26
2022-10-22T10:44:17.040Z,0.84
2022-10-22T10:47:16.992Z,0.93
2022-10-22T10:50:16.991Z,0.75
2022-10-22T10:53:17.049Z,0.98
2022-10-22T10:56:17.017Z,1.04
2022-10-22T10:59:16.993Z,0.61
2022-10-22T11:02:17.005Z,0.92
2022-10-22T11:05:17.007Z,1.12
2022-10-22T11:08:17.008Z,0.65
2022-10-22T11:14:17.044Z,0.95
2022-10-22T11:17:17.024Z,0.71
2022-10-22T11:20:17.021Z,0.84
2022-10-22T11:23:19.788Z,0.84
2022-10-22T11:26:17.017Z,0.75
2022-10-22T11:29:17.028Z,0.99
2022-10-22T11:32:17.014Z,1.03
2022-10-22T11:35:17.031Z,1.1
2022-10-22T11:38:17.044Z,0.94
2022-10-22T11:41:17.048Z,0.93
2022-10-22T11:44:17.043Z,1.19
2022-10-22T11:47:17.044Z,0.81
2022-10-22T11:50:17.015Z,1.02
2022-10-22T11:53:17.059Z,1.15
2022-10-22T11:56:17.034Z,0.62
2022-10-22T11:59:17.178Z,0.9
2022-10-22T12:02:17.066Z,1.16
2022-10-22T12:05:17.079Z,0.88
2022-10-22T12:08:17.043Z,1.04
2022-10-22T12:11:17.065Z,1.22
2022-10-22T12:14:17.050Z,1.14
2022-10-22T12:17:17.090Z,1.05
2022-10-22T12:20:17.068Z,1.23
2022-10-22T12:23:17.087Z,0.53
2022-10-22T12:26:17.103Z,0.64
2022-10-22T12:29:17.114Z,0.82
2022-10-22T12:32:17.075Z,0.76
2022-10-22T12:35:17.080Z,0.69
2022-10-22T12:38:17.138Z,0.95
2022-10-22T12:41:17.072Z,1.03
2022-10-22T12:44:17.089Z,1.09
2022-10-22T12:47:17.079Z,0.82
2022-10-22T12:50:17.079Z,0.58
2022-10-22T12:53:17.101Z,0.56
2022-10-22T12:56:17.101Z,0.57
2022-10-22T12:59:17.102Z,0.52
2022-10-22T13:02:17.090Z,0.74
2022-10-22T13:05:17.123Z,0.8
2022-10-22T13:08:17.120Z,0.66
2022-10-22T13:11:17.132Z,0.87
2022-10-22T13:14:17.195Z,0.61
2022-10-22T13:17:17.102Z,0.66
2022-10-22T13:20:17.120Z,1.06
2022-10-22T13:23:17.139Z,0.73
2022-10-22T13:26:17.125Z,0.66
2022-10-22T13:29:17.247Z,0.67
2022-10-22T13:32:17.156Z,0.53
2022-10-22T13:35:17.143Z,0.9
2022-10-22T13:38:17.153Z,0.73
2022-10-22T13:41:17.168Z,0.57
2022-10-22T13:44:17.184Z,0.53
2022-10-22T13:47:17.150Z,0.43
2022-10-22T13:50:17.135Z,0.43
2022-10-22T13:53:18.538Z,0.42
2022-10-22T13:56:17.267Z,0.37
2022-10-22T13:59:21.368Z,0.19
2022-10-22T14:02:17.179Z,0.64
2022-10-22T14:05:17.189Z,0.24
2022-10-22T14:08:17.205Z,0.24
2022-10-22T14:11:17.189Z,0.14
2022-10-22T14:14:17.198Z,0.09
2022-10-22T14:17:17.188Z,0
2022-10-22T14:20:17.188Z,0.19
2022-10-22T14:26:17.192Z,0.06
2022-10-22T14:29:17.218Z,0
2022-10-22T14:32:17.178Z,0.1
2022-10-22T14:35:17.188Z,0.32
2022-10-22T14:38:17.223Z,0.26
2022-10-22T14:41:17.199Z,0.38
2022-10-22T14:44:17.240Z,0.18
2022-10-22T14:47:17.225Z,0.18
2022-10-22T14:50:17.208Z,0.1
2022-10-22T14:53:17.214Z,0.04
2022-10-22T14:56:17.214Z,0.03
2022-10-22T14:59:17.216Z,0.23
2022-10-22T15:02:17.216Z,0.09
2022-10-22T15:05:17.242Z,0.04
2022-10-22T15:08:17.223Z,0.08
2022-10-22T15:11:17.203Z,0.16
2022-10-22T15:14:17.248Z,0.19
2022-10-22T15:17:17.226Z,0.13
2022-10-22T15:20:17.245Z,0.26
2022-10-22T15:23:17.308Z,0.23
2022-10-22T15:26:17.263Z,0.32
2022-10-22T15:29:17.245Z,0.16
2022-10-22T15:32:17.249Z,0.12
2022-10-22T15:35:17.228Z,0.2
2022-10-22T15:38:17.264Z,0.2
2022-10-22T15:41:22.909Z,0.16
2022-10-22T15:44:17.232Z,0.1
2022-10-22T15:47:17.263Z,0.09
2022-10-22T15:50:17.247Z,0.09
2022-10-22T15:53:17.294Z,0.15
2022-10-22T15:56:17.235Z,0.21
2022-10-22T15:59:17.283Z,0.27
2022-10-22T16:02:17.258Z,0.33
2022-10-22T16:05:17.310Z,0.2
2022-10-22T16:08:17.298Z,0.17
2022-10-22T16:11:17.260Z,0.23
2022-10-22T16:14:17.280Z,0.38
2022-10-22T16:17:17.294Z,0.25
2022-10-22T16:20:17.270Z,0.24
2022-10-22T16:23:17.305Z,0.11
2022-10-22T16:26:17.303Z,0.14
2022-10-22T16:29:17.279Z,0.2
2022-10-22T16:32:17.296Z,0.21
2022-10-22T16:35:17.294Z,0.28
2022-10-22T16:38:17.299Z,0.23
2022-10-22T16:41:17.304Z,0.22
2022-10-22T16:44:17.325Z,0.28
2022-10-22T16:47:17.325Z,0.05
2022-10-22T16:50:17.344Z,0
2022-10-22T16:53:17.321Z,0
2022-10-22T16:56:17.340Z,0
2022-10-22T16:59:17.332Z,0
2022-10-22T17:02:17.353Z,0
2022-10-22T17:05:17.315Z,0
2022-10-22T17:08:17.346Z,0.08
2022-10-22T17:11:17.363Z,0.09
2022-10-22T17:14:17.368Z,0.13
2022-10-22T17:17:17.375Z,0.16
2022-10-22T17:20:17.353Z,0.11
2022-10-22T17:23:17.337Z,0.09
2022-10-22T17:26:17.354Z,0.16
2022-10-22T17:29:17.317Z,0
2022-10-22T17:32:17.399Z,0.21
2022-10-22T17:35:17.365Z,0.16
2022-10-22T17:38:17.341Z,0.29
2022-10-22T17:41:17.332Z,0.39
2022-10-22T17:44:17.380Z,0.51
2022-10-22T17:47:17.381Z,0.64
2022-10-22T17:50:17.339Z,0.6
2022-10-22T17:53:17.384Z,0.52
2022-10-22T17:56:17.359Z,0.41
2022-10-22T17:59:17.405Z,0.79
2022-10-22T18:02:17.380Z,0.53
2022-10-22T18:05:17.390Z,0.59
2022-10-22T18:08:17.354Z,0.5
2022-10-22T18:11:17.401Z,0.65
2022-10-22T18:14:17.390Z,0.36
2022-10-22T18:17:17.377Z,0.43
2022-10-22T18:20:17.410Z,0.44
2022-10-22T18:23:17.391Z,0.52
2022-10-22T18:26:17.891Z,0.51
2022-10-22T18:29:17.400Z,0.45
2022-10-22T18:32:17.431Z,0.71
2022-10-22T18:35:17.445Z,0.48
2022-10-22T18:38:17.386Z,0.57
2022-10-22T18:41:17.408Z,0.7
2022-10-22T18:44:17.421Z,0.66
2022-10-22T18:47:17.400Z,0.69
2022-10-22T18:50:17.496Z,0.7
2022-10-22T18:53:17.390Z,0.56
2022-10-22T18:56:17.416Z,0.34
2022-10-22T18:59:17.452Z,0.29
2022-10-22T19:02:17.450Z,0.4
2022-10-22T19:05:17.410Z,0.66
2022-10-22T19:08:17.446Z,0.36
2022-10-22T19:11:17.481Z,0.28
2022-10-22T19:14:17.420Z,0.57
2022-10-22T19:17:17.406Z,0.41
2022-10-22T19:20:17.454Z,0.42
2022-10-22T19:23:19.855Z,0.53
2022-10-22T19:26:17.455Z,0.48
2022-10-22T19:29:17.444Z,0.67
2022-10-22T19:32:17.431Z,0.33
2022-10-22T19:35:17.444Z,0.27
2022-10-22T19:38:17.443Z,0.38
2022-10-22T19:41:17.478Z,0.45
2022-10-22T19:44:17.434Z,0.68
2022-10-22T19:47:17.451Z,0.63
2022-10-22T19:50:17.541Z,0.58
2022-10-22T19:53:17.456Z,0.58
2022-10-22T19:56:17.494Z,0.46
2022-10-22T19:59:17.469Z,0.41
2022-10-22T20:02:17.511Z,0.64
2022-10-22T20:05:17.492Z,0.51
2022-10-22T20:08:17.505Z,0.47
2022-10-22T20:11:17.495Z,0.46
2022-10-22T20:14:17.514Z,0.44
2022-10-22T20:17:17.472Z,0.42
2022-10-22T20:20:17.489Z,0.69
2022-10-22T20:23:17.495Z,0.45
2022-10-22T20:26:17.517Z,0.41
2022-10-22T20:29:17.517Z,0.72
2022-10-22T20:32:17.594Z,0.68
2022-10-22T20:35:17.494Z,0.86
2022-10-22T20:38:17.514Z,0.71
2022-10-22T20:41:17.531Z,0.83
2022-10-22T20:44:17.505Z,0.65
2022-10-22T20:47:17.512Z,0.43
2022-10-22T20:50:17.521Z,0.64
2022-10-22T20:53:17.508Z,0.36
2022-10-22T20:56:17.510Z,0.36
2022-10-22T20:59:17.555Z,0.53
2022-10-22T21:02:17.531Z,0.57
2022-10-22T21:05:17.522Z,0.46
2022-10-22T21:08:17.694Z,0.55
2022-10-22T21:11:17.531Z,0.65
2022-10-22T21:14:17.539Z,0.4
2022-10-22T21:17:17.519Z,0.6
2022-10-22T21:20:18.718Z,0.41
2022-10-22T21:23:17.517Z,0.42
2022-10-22T21:26:17.552Z,0.36
2022-10-22T21:29:17.522Z,0.58
2022-10-22T21:32:17.620Z,0.62
2022-10-22T21:35:17.540Z,0.94
2022-10-22T21:38:17.595Z,0.97
2022-10-22T21:41:17.562Z,0.96
2022-10-22T21:44:17.573Z,1.22
2022-10-22T21:47:17.569Z,1.21
2022-10-22T21:50:17.566Z,0.91
2022-10-22T21:53:17.593Z,0.98
2022-10-22T21:56:17.575Z,0.98
2022-10-22T21:59:17.567Z,0.86
2022-10-22T22:02:17.784Z,1.09
2022-10-22T22:05:17.555Z,0.97
2022-10-22T22:08:17.570Z,1.06
2022-10-22T22:11:17.550Z,1.07
2022-10-22T22:14:17.586Z,1.04
2022-10-22T22:17:17.590Z,0.82
2022-10-22T22:20:17.577Z,1.13
2022-10-22T22:23:17.574Z,1.14
2022-10-22T22:26:17.579Z,0.94
2022-10-22T22:29:17.605Z,0.76
2022-10-22T22:32:17.582Z,0.85
2022-10-22T22:35:17.627Z,0.73
2022-10-22T22:38:17.602Z,0.86
2022-10-22T22:41:17.605Z,0.77
2022-10-22T22:44:17.616Z,0.82
2022-10-22T22:47:17.585Z,0.68
2022-10-22T22:50:17.629Z,0.6
2022-10-22T22:53:17.611Z,0.83
2022-10-22T22:56:17.622Z,0.89
2022-10-22T22:59:17.611Z,1.04
2022-10-22T23:02:17.640Z,1.04
2022-10-22T23:05:17.645Z,0.9
2022-10-22T23:08:17.636Z,1.27
2022-10-22T23:11:17.619Z,1.41
2022-10-22T23:14:17.650Z,1.2
2022-10-22T23:17:17.630Z,1.83
2022-10-22T23:20:17.635Z,1.11
2022-10-22T23:23:17.653Z,1.52
2022-10-22T23:26:17.631Z,1.15
2022-10-22T23:29:17.688Z,1.39
2022-10-22T23:32:17.654Z,1.45
2022-10-22T23:35:17.652Z,1.28
2022-10-22T23:38:17.621Z,1.06
2022-10-22T23:41:17.656Z,1.14
2022-10-22T23:44:17.636Z,0.98
2022-10-22T23:47:17.686Z,1.05
2022-10-22T23:50:17.643Z,0.83
2022-10-22T23:53:17.660Z,0.98
2022-10-22T23:56:17.741Z,0.82
2022-10-22T23:59:17.679Z,1.01
